Time;durP1;ratioP1;P1;durP2;ratioP2;P2;SDS_P1;SDS_P2;PMS_P1;PMS_P2;Temp;Humidity;BMP_temperature;BMP_pressure;BME280_temperature;BME280_humidity;BME280_pressure;Samples;Min_cycle;Max_cycle;Signal;HPM_P1;HPM_P2
2023/07/08 00:00:57;;;;;;;5.20;4.70;;;22.20;99.90;;;;;;5071390;28;20188;-73
2023/07/08 00:03:23;;;;;;;6.00;5.50;;;22.30;99.90;;;;;;5071349;28;20596;-73
2023/07/08 00:05:54;;;;;;;5.15;4.75;;;22.30;99.90;;;;;;5071407;28;20166;-73
2023/07/08 00:08:20;;;;;;;6.18;5.65;;;22.20;99.90;;;;;;5071644;28;20188;-73
2023/07/08 00:10:46;;;;;;;5.68;4.78;;;22.20;99.90;;;;;;5053134;28;20174;-72
2023/07/08 00:13:11;;;;;;;8.32;4.70;;;22.10;99.90;;;;;;5071284;28;20193;-72
2023/07/08 00:15:38;;;;;;;6.43;5.85;;;22.10;99.90;;;;;;5071700;28;20174;-73
2023/07/08 00:18:17;;;;;;;6.40;5.80;;;22.00;99.90;;;;;;5071355;28;20167;-72
2023/07/08 00:20:48;;;;;;;5.45;4.72;;;22.00;99.90;;;;;;5071712;28;20696;-73
2023/07/08 00:23:15;;;;;;;5.28;4.88;;;21.90;99.90;;;;;;5070794;28;20205;-73
2023/07/08 00:25:41;;;;;;;5.47;5.00;;;21.80;99.90;;;;;;5071560;28;20261;-73
2023/07/08 00:28:15;;;;;;;9.00;4.80;;;21.70;99.90;;;;;;5071334;28;20209;-73
2023/07/08 00:30:40;;;;;;;5.45;4.95;;;21.60;99.90;;;;;;5053411;28;20174;-73
2023/07/08 00:33:06;;;;;;;6.93;6.10;;;21.60;99.90;;;;;;5071268;28;20631;-73
2023/07/08 00:35:37;;;;;;;6.13;5.53;;;21.50;99.90;;;;;;5071403;28;20174;-72
2023/07/08 00:38:27;;;;;;;8.25;6.03;;;21.50;99.90;;;;;;5071168;28;20217;-72
2023/07/08 00:41:02;;;;;;;5.88;5.30;;;21.40;99.90;;;;;;5071171;28;20543;-72
2023/07/08 00:43:37;;;;;;;5.82;5.32;;;21.40;99.90;;;;;;5070928;28;20206;-75
2023/07/08 00:46:31;;;;;;;6.57;5.78;;;21.30;99.90;;;;;;5071433;28;20695;-74
2023/07/08 00:48:59;;;;;;;5.97;5.20;;;21.30;99.90;;;;;;5071076;28;20209;-72
2023/07/08 00:51:25;;;;;;;7.82;5.75;;;21.30;99.90;;;;;;5071778;28;20817;-74
2023/07/08 00:53:51;;;;;;;6.22;4.82;;;21.20;99.90;;;;;;5070915;28;20196;-72
2023/07/08 00:56:26;;;;;;;7.03;6.43;;;21.20;99.90;;;;;;5070745;28;20261;-74
2023/07/08 00:59:02;;;;;;;7.70;7.05;;;21.10;99.90;;;;;;5070869;28;20196;-72
2023/07/08 01:01:32;;;;;;;7.32;6.63;;;21.10;99.90;;;;;;5070630;28;20254;-74
2023/07/08 01:04:03;;;;;;;5.75;5.35;;;21.00;99.90;;;;;;5070541;28;20171;-71
2023/07/08 01:06:32;;;;;;;5.97;5.38;;;20.90;99.90;;;;;;5053156;28;20633;-74
2023/07/08 01:09:02;;;;;;;6.57;5.88;;;20.90;99.90;;;;;;5069284;28;20194;-73
2023/07/08 01:11:28;;;;;;;6.80;5.75;;;20.90;99.90;;;;;;5070952;28;20622;-74
2023/07/08 01:13:54;;;;;;;6.07;5.68;;;20.90;99.90;;;;;;5052152;28;20175;-74
2023/07/08 01:16:19;;;;;;;6.20;5.70;;;20.80;99.90;;;;;;5052751;28;20193;-74
2023/07/08 01:18:52;;;;;;;5.50;5.10;;;20.80;99.90;;;;;;5070701;28;20233;-72
2023/07/08 01:21:32;;;;;;;6.10;5.47;;;20.80;99.90;;;;;;5070728;28;20166;-72
2023/07/08 01:23:59;;;;;;;6.38;5.78;;;20.80;99.90;;;;;;5070214;28;20174;-72
2023/07/08 01:26:25;;;;;;;8.85;5.65;;;20.80;99.90;;;;;;5070645;28;20173;-74
2023/07/08 01:28:53;;;;;;;6.47;5.07;;;20.80;99.90;;;;;;5070622;28;20190;-75
2023/07/08 01:31:21;;;;;;;6.28;5.72;;;20.80;99.90;;;;;;5070201;28;20181;-74
2023/07/08 01:33:46;;;;;;;6.13;5.53;;;20.90;99.90;;;;;;5070141;28;20294;-73
2023/07/08 01:36:12;;;;;;;6.20;5.63;;;20.90;99.90;;;;;;5070617;28;20189;-74
2023/07/08 01:38:39;;;;;;;5.97;5.47;;;20.90;99.90;;;;;;5070550;28;20197;-75
2023/07/08 01:41:05;;;;;;;7.13;5.20;;;20.90;99.90;;;;;;5070077;28;20224;-74
2023/07/08 01:43:31;;;;;;;5.78;5.28;;;20.90;99.90;;;;;;5073267;28;20724;-74
2023/07/08 01:46:00;;;;;;;6.63;5.80;;;20.90;99.90;;;;;;5074083;28;20174;-74
2023/07/08 01:48:28;;;;;;;5.68;5.25;;;20.90;99.90;;;;;;5074092;28;20259;-74
2023/07/08 01:51:01;;;;;;;6.78;5.75;;;20.80;99.90;;;;;;5074026;28;20261;-74
2023/07/08 01:53:35;;;;;;;6.05;5.55;;;20.90;99.90;;;;;;5073675;28;20277;-73
2023/07/08 01:56:01;;;;;;;7.32;5.45;;;20.80;99.90;;;;;;5073159;28;20674;-75
2023/07/08 01:58:27;;;;;;;5.35;4.85;;;20.80;99.90;;;;;;5073436;28;20205;-75
2023/07/08 02:00:54;;;;;;;6.78;6.18;;;20.80;99.90;;;;;;5073809;28;20197;-74
2023/07/08 02:03:20;;;;;;;7.35;6.13;;;20.80;99.90;;;;;;5073484;28;20202;-74
2023/07/08 02:05:46;;;;;;;6.53;5.78;;;20.70;99.90;;;;;;5073727;28;20176;-73
2023/07/08 02:08:11;;;;;;;8.45;6.57;;;20.70;99.90;;;;;;5073541;28;20190;-73
2023/07/08 02:10:39;;;;;;;6.50;5.97;;;20.70;99.90;;;;;;5071978;28;20189;-74
2023/07/08 02:13:04;;;;;;;6.65;6.15;;;20.60;99.90;;;;;;5073263;28;20174;-74
2023/07/08 02:15:30;;;;;;;8.25;6.57;;;20.60;99.90;;;;;;5073546;28;20249;-75
2023/07/08 02:17:55;;;;;;;7.72;6.97;;;20.50;99.90;;;;;;5073338;28;20174;-73
2023/07/08 02:20:21;;;;;;;7.55;6.85;;;20.50;99.90;;;;;;5073938;28;20174;-74
2023/07/08 02:22:47;;;;;;;7.43;6.72;;;20.40;99.90;;;;;;5073122;28;20693;-74
2023/07/08 02:25:13;;;;;;;7.40;6.70;;;20.30;99.90;;;;;;5073197;28;20162;-74
2023/07/08 02:27:38;;;;;;;7.55;6.63;;;20.30;99.90;;;;;;5073214;28;20573;-73
2023/07/08 02:30:06;;;;;;;7.97;6.43;;;20.20;99.90;;;;;;5073052;28;20201;-73
2023/07/08 02:32:34;;;;;;;7.15;6.35;;;20.10;99.90;;;;;;5055068;28;20178;-73
2023/07/08 02:35:00;;;;;;;7.63;6.82;;;20.00;99.90;;;;;;5073157;28;20173;-74
2023/07/08 02:37:25;;;;;;;7.93;6.03;;;20.00;99.90;;;;;;5073061;28;20173;-74
2023/07/08 02:39:51;;;;;;;7.80;7.00;;;19.90;99.90;;;;;;5073226;28;20561;-73
2023/07/08 02:42:17;;;;;;;7.75;5.85;;;19.80;99.90;;;;;;5072278;28;20279;-72
2023/07/08 02:44:42;;;;;;;7.55;6.47;;;19.80;99.90;;;;;;5072537;28;20174;-74
2023/07/08 02:47:08;;;;;;;7.60;6.07;;;19.70;99.90;;;;;;5072877;28;20594;-73
2023/07/08 02:49:34;;;;;;;6.53;5.57;;;19.60;99.90;;;;;;5072586;28;20209;-74
2023/07/08 02:51:59;;;;;;;7.05;6.32;;;19.60;99.90;;;;;;5073019;28;20178;-73
2023/07/08 02:54:25;;;;;;;6.78;6.18;;;19.50;99.90;;;;;;5072303;28;20182;-72
2023/07/08 02:56:50;;;;;;;6.35;5.75;;;19.50;99.90;;;;;;5072762;28;20174;-72
2023/07/08 02:59:16;;;;;;;6.80;6.15;;;19.50;99.90;;;;;;5072584;28;20189;-73
2023/07/08 03:01:41;;;;;;;7.23;6.10;;;19.40;99.90;;;;;;5072268;28;20194;-73
2023/07/08 03:04:12;;;;;;;7.82;7.22;;;19.50;99.90;;;;;;5072176;28;20166;-73
2023/07/08 03:06:42;;;;;;;8.47;5.70;;;19.50;99.90;;;;;;5072647;28;20681;-73
2023/07/08 03:09:08;;;;;;;7.93;7.03;;;19.40;99.90;;;;;;5071292;28;20194;-73
2023/07/08 03:11:33;;;;;;;7.20;6.60;;;19.40;99.90;;;;;;5072404;28;20235;-74
2023/07/08 03:13:59;;;;;;;7.07;6.38;;;19.40;99.90;;;;;;5085141;28;20192;-76
2023/07/08 03:16:25;;;;;;;7.03;6.35;;;19.30;99.90;;;;;;5074911;28;20162;-75
2023/07/08 03:18:51;;;;;;;7.75;6.32;;;19.30;99.90;;;;;;5092357;28;20214;-77
2023/07/08 03:21:18;;;;;;;7.47;6.30;;;19.30;99.90;;;;;;5078214;28;20178;-73
2023/07/08 03:23:43;;;;;;;8.95;7.28;;;19.30;99.90;;;;;;5071874;28;20182;-72
2023/07/08 03:26:20;;;;;;;7.10;6.45;;;19.30;99.90;;;;;;5072100;28;20621;-73
2023/07/08 03:28:46;;;;;;;7.40;6.70;;;19.30;99.90;;;;;;5072097;28;20198;-72
2023/07/08 03:31:12;;;;;;;6.88;6.28;;;19.30;99.90;;;;;;5071692;28;20192;-72
2023/07/08 03:33:38;;;;;;;6.93;6.20;;;19.30;99.90;;;;;;5071661;28;20249;-72
2023/07/08 03:36:10;;;;;;;6.75;6.15;;;19.40;99.90;;;;;;5072104;28;20170;-73
2023/07/08 03:38:35;;;;;;;6.57;6.07;;;19.40;99.90;;;;;;5054134;28;20278;-72
2023/07/08 03:41:01;;;;;;;7.80;6.25;;;19.50;99.90;;;;;;5071877;28;20201;-72
2023/07/08 03:43:26;;;;;;;7.38;6.78;;;19.50;99.90;;;;;;5071235;28;20584;-73
2023/07/08 03:45:53;;;;;;;7.25;6.55;;;19.60;99.90;;;;;;5071644;28;20178;-73
2023/07/08 03:48:19;;;;;;;9.35;6.63;;;19.60;99.90;;;;;;5071456;28;20197;-73
2023/07/08 03:50:44;;;;;;;8.07;5.88;;;19.70;99.90;;;;;;5071746;28;20174;-73
2023/07/08 03:53:10;;;;;;;9.23;6.25;;;19.70;99.90;;;;;;5071407;28;20257;-72
2023/07/08 03:55:36;;;;;;;6.85;5.75;;;19.60;99.90;;;;;;5071628;28;20197;-73
2023/07/08 03:58:01;;;;;;;7.90;6.25;;;19.60;99.90;;;;;;5071370;28;20170;-72
2023/07/08 04:00:27;;;;;;;6.15;5.70;;;19.70;99.90;;;;;;5070792;28;20193;-73
2023/07/08 04:02:52;;;;;;;7.03;6.43;;;19.70;99.90;;;;;;5071051;28;20198;-72
2023/07/08 04:05:20;;;;;;;7.50;5.88;;;19.70;99.90;;;;;;5070835;28;20166;-73
2023/07/08 04:07:46;;;;;;;6.80;6.20;;;19.80;99.90;;;;;;5053509;28;20622;-73
2023/07/08 04:10:13;;;;;;;6.53;5.50;;;19.80;99.90;;;;;;5069986;28;20221;-73
2023/07/08 04:12:39;;;;;;;7.18;6.45;;;19.80;99.90;;;;;;5071264;28;20559;-73
2023/07/08 04:15:07;;;;;;;7.40;6.60;;;19.80;99.90;;;;;;5053270;28;20182;-72
2023/07/08 04:17:33;;;;;;;9.00;6.43;;;19.80;99.90;;;;;;5071408;28;20173;-72
2023/07/08 04:20:03;;;;;;;6.82;5.85;;;19.80;99.90;;;;;;5070715;28;20225;-72
2023/07/08 04:22:29;;;;;;;7.03;5.80;;;19.80;99.90;;;;;;5071100;28;20700;-73
2023/07/08 04:24:55;;;;;;;7.57;5.60;;;19.80;99.90;;;;;;5053281;28;20169;-73
2023/07/08 04:27:21;;;;;;;6.57;5.85;;;19.80;99.90;;;;;;5071122;28;20184;-72
2023/07/08 04:29:48;;;;;;;7.22;6.53;;;19.70;99.90;;;;;;5071231;28;20657;-73
2023/07/08 04:32:13;;;;;;;6.60;5.90;;;19.60;99.90;;;;;;5070974;28;20633;-71
2023/07/08 04:34:39;;;;;;;6.20;5.60;;;19.60;99.90;;;;;;5070584;28;20273;-71
2023/07/08 04:37:05;;;;;;;6.30;5.70;;;19.60;99.90;;;;;;5071122;28;20540;-71
2023/07/08 04:39:31;;;;;;;9.50;7.03;;;19.50;99.90;;;;;;5070869;28;20597;-72
2023/07/08 04:41:57;;;;;;;7.07;6.37;;;19.50;99.90;;;;;;5070652;28;20219;-72
2023/07/08 04:44:24;;;;;;;7.60;6.90;;;19.50;99.90;;;;;;5070519;28;20264;-72
2023/07/08 04:46:53;;;;;;;7.95;6.90;;;19.40;99.90;;;;;;5071124;28;20166;-72
2023/07/08 04:49:20;;;;;;;7.82;7.05;;;19.40;99.90;;;;;;5071036;28;20250;-72
2023/07/08 04:51:46;;;;;;;8.27;7.20;;;19.40;99.90;;;;;;5070758;28;20178;-72
2023/07/08 04:54:12;;;;;;;7.90;7.20;;;19.40;99.90;;;;;;5071120;28;20174;-72
2023/07/08 04:56:45;;;;;;;8.00;6.78;;;19.40;99.90;;;;;;5071148;28;20252;-73
2023/07/08 04:59:13;;;;;;;7.30;6.43;;;19.40;99.90;;;;;;5070882;28;20201;-72
2023/07/08 05:01:39;;;;;;;7.63;5.80;;;19.50;99.90;;;;;;5070753;28;20197;-72
2023/07/08 05:04:06;;;;;;;6.35;5.75;;;19.60;99.90;;;;;;5070760;28;20637;-72
2023/07/08 05:06:32;;;;;;;9.20;6.75;;;19.70;99.90;;;;;;5070649;28;20179;-72
2023/07/08 05:08:59;;;;;;;6.90;6.20;;;19.90;99.90;;;;;;5070867;28;20320;-72
2023/07/08 05:11:25;;;;;;;8.30;7.55;;;20.10;99.90;;;;;;5070818;28;20516;-72
2023/07/08 05:13:50;;;;;;;8.35;7.50;;;20.40;99.90;;;;;;5070384;28;20261;-72
2023/07/08 05:16:16;;;;;;;7.97;7.18;;;20.50;99.90;;;;;;5070784;28;20174;-73
2023/07/08 05:18:42;;;;;;;6.50;5.78;;;20.70;99.90;;;;;;5074629;28;20704;-72
2023/07/08 05:21:09;;;;;;;8.35;7.68;;;20.90;99.90;;;;;;5074587;28;20166;-73
2023/07/08 05:23:35;;;;;;;7.63;6.45;;;21.20;99.90;;;;;;5073415;28;20693;-73
2023/07/08 05:26:02;;;;;;;8.02;7.28;;;21.60;99.90;;;;;;5074587;28;20174;-72
2023/07/08 05:28:28;;;;;;;9.05;8.25;;;21.90;99.90;;;;;;5074457;28;20221;-73
2023/07/08 05:30:55;;;;;;;6.75;6.15;;;22.20;99.90;;;;;;5074433;28;20162;-73
2023/07/08 05:33:22;;;;;;;5.70;5.20;;;22.40;99.90;;;;;;5074284;28;20174;-72
2023/07/08 05:35:48;;;;;;;6.93;5.43;;;22.60;99.90;;;;;;5074077;28;20552;-72
2023/07/08 05:38:13;;;;;;;7.53;6.63;;;22.70;99.90;;;;;;5073954;28;20270;-71
2023/07/08 05:40:39;;;;;;;6.00;5.40;;;22.70;99.90;;;;;;5072231;28;20190;-73
2023/07/08 05:43:04;;;;;;;8.25;6.15;;;22.70;99.90;;;;;;5073805;28;20284;-73
2023/07/08 05:45:30;;;;;;;5.57;5.03;;;22.60;99.90;;;;;;5074135;28;20253;-72
2023/07/08 05:47:56;;;;;;;8.07;5.18;;;22.60;99.90;;;;;;5073864;28;20212;-72
2023/07/08 05:50:21;;;;;;;7.43;5.13;;;22.80;99.90;;;;;;5073459;28;20680;-72
2023/07/08 05:52:47;;;;;;;6.13;5.63;;;23.20;99.90;;;;;;5073790;28;20205;-71
2023/07/08 05:55:13;;;;;;;6.38;5.05;;;23.80;99.90;;;;;;5073301;28;20209;-71
2023/07/08 05:57:38;;;;;;;5.63;5.13;;;24.50;99.90;;;;;;5073921;28;20190;-71
2023/07/08 06:00:06;;;;;;;6.68;5.15;;;25.20;99.90;;;;;;5073693;28;20190;-72
2023/07/08 06:02:32;;;;;;;8.90;5.40;;;25.80;99.90;;;;;;5073623;28;20202;-72
2023/07/08 06:04:57;;;;;;;7.50;5.70;;;26.30;99.90;;;;;;5073662;28;20193;-71
2023/07/08 06:07:23;;;;;;;5.68;5.10;;;26.70;99.90;;;;;;5073540;28;20174;-70
2023/07/08 06:09:48;;;;;;;6.40;5.43;;;26.70;99.90;;;;;;5072331;28;20190;-72
2023/07/08 06:12:14;;;;;;;5.85;5.38;;;26.50;99.90;;;;;;5073313;28;20178;-72
2023/07/08 06:14:40;;;;;;;7.82;5.90;;;26.10;99.90;;;;;;5073359;28;20588;-71
2023/07/08 06:17:06;;;;;;;7.35;5.05;;;25.80;99.90;;;;;;5073385;28;20722;-72
2023/07/08 06:19:33;;;;;;;5.13;4.40;;;25.40;99.90;;;;;;5072942;28;20210;-70
2023/07/08 06:21:58;;;;;;;5.25;4.40;;;25.10;99.90;;;;;;5073175;28;20198;-72
2023/07/08 06:24:24;;;;;;;8.13;5.15;;;24.90;99.90;;;;;;5073374;28;20184;-72
2023/07/08 06:26:49;;;;;;;4.78;4.32;;;25.00;99.90;;;;;;5073154;28;20201;-71
2023/07/08 06:29:15;;;;;;;4.60;4.20;;;25.30;99.90;;;;;;5072703;28;20190;-72
2023/07/08 06:31:41;;;;;;;6.05;4.78;;;25.50;99.90;;;;;;5073420;28;20245;-72
2023/07/08 06:34:07;;;;;;;6.00;5.18;;;25.80;99.90;;;;;;5072370;28;20177;-72
2023/07/08 06:36:33;;;;;;;11.23;5.30;;;25.90;99.90;;;;;;5073477;28;20174;-71
2023/07/08 06:38:59;;;;;;;5.95;5.45;;;26.10;99.90;;;;;;5073886;28;20558;-70
2023/07/08 06:41:24;;;;;;;5.53;5.07;;;26.50;99.90;;;;;;5073206;28;20170;-70
2023/07/08 06:43:50;;;;;;;6.10;5.38;;;26.90;99.90;;;;;;5072275;28;20250;-72
2023/07/08 06:46:16;;;;;;;5.72;5.18;;;27.30;99.90;;;;;;5073049;28;20177;-71
2023/07/08 06:48:42;;;;;;;5.00;4.50;;;27.60;99.90;;;;;;5072549;28;20281;-71
2023/07/08 06:51:07;;;;;;;6.40;4.85;;;28.00;99.90;;;;;;5072815;28;20307;-72
2023/07/08 06:53:33;;;;;;;11.32;6.55;;;28.60;99.90;;;;;;5071474;28;20197;-71
2023/07/08 06:55:59;;;;;;;5.88;5.00;;;29.00;99.90;;;;;;5072028;28;20174;-72
2023/07/08 06:58:25;;;;;;;6.40;5.80;;;29.10;99.90;;;;;;5053430;28;20209;-71
2023/07/08 07:00:50;;;;;;;12.13;10.48;;;29.30;99.90;;;;;;5072706;28;20209;-71
2023/07/08 07:03:16;;;;;;;6.80;6.20;;;29.30;99.90;;;;;;5072117;28;20202;-70
2023/07/08 07:05:43;;;;;;;5.68;5.18;;;29.40;99.90;;;;;;5072369;28;20162;-71
2023/07/08 07:08:10;;;;;;;5.55;5.03;;;29.50;99.90;;;;;;5072021;28;20222;-70
2023/07/08 07:10:36;;;;;;;7.97;5.03;;;29.60;99.90;;;;;;5071213;28;20219;-72
2023/07/08 07:13:01;;;;;;;5.18;4.68;;;29.60;99.90;;;;;;5071311;28;20174;-71
2023/07/08 07:15:29;;;;;;;5.10;4.50;;;29.60;99.90;;;;;;5072039;28;20645;-70
2023/07/08 07:17:55;;;;;;;5.30;4.40;;;29.70;99.90;;;;;;5054928;28;20208;-71
2023/07/08 07:20:21;;;;;;;5.68;5.07;;;29.80;99.90;;;;;;5072604;28;20178;-72
2023/07/08 07:22:46;;;;;;;5.65;4.80;;;30.00;99.90;;;;;;5072556;28;20201;-72
2023/07/08 07:25:12;;;;;;;6.10;5.18;;;29.80;99.90;;;;;;5072358;28;20224;-72
2023/07/08 07:27:37;;;;;;;6.13;5.53;;;29.90;99.90;;;;;;5072241;28;20556;-71
2023/07/08 07:30:03;;;;;;;6.28;5.38;;;30.10;99.90;;;;;;5071576;28;20319;-72
2023/07/08 07:32:29;;;;;;;6.57;5.13;;;30.20;99.90;;;;;;5071669;28;20216;-73
2023/07/08 07:34:57;;;;;;;7.05;5.57;;;30.30;99.90;;;;;;5072783;28;20181;-72
2023/07/08 07:37:22;;;;;;;6.32;5.72;;;30.00;99.90;;;;;;5072486;28;20251;-71
2023/07/08 07:39:48;;;;;;;7.15;5.32;;;30.00;99.90;;;;;;5068551;28;20239;-71
2023/07/08 07:42:15;;;;;;;5.95;5.18;;;30.20;99.90;;;;;;5071186;28;20209;-72
2023/07/08 07:44:41;;;;;;;7.07;5.75;;;30.40;99.90;;;;;;5071886;28;20162;-71
2023/07/08 07:47:08;;;;;;;6.75;5.22;;;30.50;99.90;;;;;;5072242;28;20173;-72
2023/07/08 07:49:34;;;;;;;5.25;4.75;;;30.60;99.90;;;;;;5071832;28;20193;-73
2023/07/08 07:51:59;;;;;;;6.88;4.85;;;31.00;99.90;;;;;;5072220;28;20177;-70
2023/07/08 07:54:25;;;;;;;5.25;4.75;;;31.30;99.60;;;;;;5070348;28;20186;-70
2023/07/08 07:56:51;;;;;;;6.95;5.53;;;31.00;98.90;;;;;;5071659;28;20591;-72
2023/07/08 07:59:17;;;;;;;6.57;5.68;;;30.90;99.90;;;;;;5070620;28;20208;-71
2023/07/08 08:01:42;;;;;;;7.75;5.03;;;30.80;99.90;;;;;;5071317;28;20182;-73
2023/07/08 08:04:10;;;;;;;6.22;5.03;;;31.00;99.90;;;;;;5070698;28;20162;-72
2023/07/08 08:06:36;;;;;;;5.47;4.82;;;31.40;99.90;;;;;;5053540;28;20541;-72
2023/07/08 08:09:03;;;;;;;7.57;5.03;;;32.10;99.90;;;;;;5071193;28;20661;-72
2023/07/08 08:11:28;;;;;;;6.00;4.95;;;32.40;98.70;;;;;;5070618;28;20178;-70
2023/07/08 08:13:54;;;;;;;7.50;5.22;;;32.50;98.50;;;;;;5071077;28;20307;-71
2023/07/08 08:16:20;;;;;;;5.53;4.95;;;32.30;97.90;;;;;;5071210;28;20173;-72
2023/07/08 08:18:46;;;;;;;5.82;5.22;;;32.10;97.90;;;;;;5071671;28;20304;-73
2023/07/08 08:21:12;;;;;;;6.05;4.90;;;32.30;99.00;;;;;;5070390;28;20253;-72
2023/07/08 08:23:37;;;;;;;5.30;4.80;;;32.50;98.30;;;;;;5070868;28;20757;-73
2023/07/08 08:26:03;;;;;;;6.82;5.40;;;32.50;97.40;;;;;;5052822;28;20273;-72
2023/07/08 08:28:29;;;;;;;5.50;5.00;;;32.20;97.10;;;;;;5071075;28;20202;-73
2023/07/08 08:30:54;;;;;;;6.50;5.07;;;31.80;97.30;;;;;;5071216;28;20278;-71
2023/07/08 08:33:20;;;;;;;9.60;5.20;;;31.90;97.40;;;;;;5069969;28;20695;-72
2023/07/08 08:35:46;;;;;;;5.97;5.13;;;32.30;99.50;;;;;;5071605;28;20181;-70
2023/07/08 08:38:12;;;;;;;7.00;4.88;;;32.60;96.40;;;;;;5070529;28;20236;-72
2023/07/08 08:40:40;;;;;;;9.52;5.55;;;32.80;97.30;;;;;;5070441;28;20162;-71
2023/07/08 08:43:35;;;;;;;6.15;5.38;;;33.30;97.60;;;;;;5070368;28;20668;-71
2023/07/08 08:46:16;;;;;;;5.53;5.03;;;33.90;96.00;;;;;;5070851;28;20206;-73
2023/07/08 08:48:59;;;;;;;4.80;4.40;;;34.00;95.50;;;;;;5070912;28;20189;-74
2023/07/08 08:51:27;;;;;;;6.38;4.88;;;34.30;97.00;;;;;;5071991;28;20180;-73
2023/07/08 08:53:56;;;;;;;7.53;5.13;;;34.60;96.30;;;;;;5074663;28;20174;-73
2023/07/08 08:56:29;;;;;;;6.88;6.10;;;35.00;95.90;;;;;;5074853;28;20166;-72
2023/07/08 08:59:06;;;;;;;6.72;4.93;;;35.00;94.10;;;;;;5074943;28;20198;-71
2023/07/08 09:01:32;;;;;;;6.40;5.80;;;35.10;92.10;;;;;;5075165;28;20212;-73
2023/07/08 09:04:05;;;;;;;6.50;4.93;;;34.70;93.90;;;;;;5074167;28;20174;-73
2023/07/08 09:06:34;;;;;;;4.60;4.00;;;34.80;94.00;;;;;;5074551;28;20166;-73
2023/07/08 09:09:20;;;;;;;4.80;4.40;;;34.90;92.20;;;;;;5074566;28;20212;-73
2023/07/08 09:12:03;;;;;;;6.18;4.95;;;35.00;93.50;;;;;;5074837;28;20182;-73
2023/07/08 09:14:30;;;;;;;6.78;4.65;;;35.30;92.70;;;;;;5074045;28;20265;-74
2023/07/08 09:17:09;;;;;;;5.22;4.35;;;35.40;92.30;;;;;;5074365;28;20177;-73
2023/07/08 09:19:43;;;;;;;6.05;4.38;;;35.40;91.50;;;;;;5074143;28;20213;-73
2023/07/08 09:22:46;;;;;;;6.57;4.70;;;35.50;93.10;;;;;;5073656;28;20194;-72
2023/07/08 09:25:14;;;;;;;4.90;4.10;;;35.60;91.50;;;;;;5074263;28;20162;-73
2023/07/08 09:27:40;;;;;;;5.78;4.25;;;36.00;94.40;;;;;;5072755;28;20174;-73
2023/07/08 09:30:13;;;;;;;5.65;4.72;;;36.40;91.30;;;;;;5073255;28;20190;-73
2023/07/08 09:32:39;;;;;;;5.15;4.53;;;36.10;89.50;;;;;;5073865;28;20182;-75
2023/07/08 09:35:08;;;;;;;5.30;4.65;;;36.10;90.20;;;;;;5073852;28;20176;-73
2023/07/08 09:37:38;;;;;;;5.40;4.55;;;36.10;87.90;;;;;;5073123;28;20246;-71
2023/07/08 09:40:17;;;;;;;6.15;4.57;;;35.80;90.70;;;;;;5073497;28;20206;-72
2023/07/08 09:42:46;;;;;;;5.75;4.10;;;35.80;90.30;;;;;;5073636;28;20206;-73
2023/07/08 09:45:19;;;;;;;5.88;5.00;;;35.60;87.00;;;;;;5073693;28;20342;-72
2023/07/08 09:47:45;;;;;;;7.30;4.30;;;35.70;86.80;;;;;;5073215;28;20169;-73
2023/07/08 09:50:21;;;;;;;4.90;4.40;;;35.60;89.40;;;;;;5072567;28;20194;-74
2023/07/08 09:52:53;;;;;;;4.97;3.83;;;35.70;89.50;;;;;;5072496;28;20245;-73
2023/07/08 09:55:20;;;;;;;5.80;4.93;;;36.00;87.60;;;;;;5073663;28;20200;-74
2023/07/08 09:57:48;;;;;;;5.15;4.75;;;36.20;91.20;;;;;;5073983;28;20170;-74
2023/07/08 10:00:17;;;;;;;7.43;4.40;;;36.50;87.70;;;;;;5073342;28;20186;-73
2023/07/08 10:02:49;;;;;;;5.00;4.47;;;36.90;91.00;;;;;;5072277;28;20202;-73
2023/07/08 10:05:31;;;;;;;6.68;4.63;;;37.30;86.60;;;;;;5053451;28;20193;-73
2023/07/08 10:07:58;;;;;;;5.60;4.63;;;37.50;85.70;;;;;;5053289;28;20604;-74
2023/07/08 10:10:36;;;;;;;11.35;4.93;;;37.50;82.90;;;;;;5070169;28;20201;-74
2023/07/08 10:13:17;;;;;;;5.32;4.50;;;37.50;83.10;;;;;;5073321;28;20197;-72
2023/07/08 10:16:12;;;;;;;6.65;4.50;;;37.30;80.30;;;;;;5073504;28;20208;-72
2023/07/08 10:18:37;;;;;;;7.38;4.63;;;37.30;84.50;;;;;;5073286;28;20202;-73
2023/07/08 10:21:09;;;;;;;5.68;4.30;;;37.30;80.80;;;;;;5073038;28;20178;-73
2023/07/08 10:23:44;;;;;;;5.05;4.45;;;37.00;86.80;;;;;;5073068;28;20203;-70
2023/07/08 10:26:24;;;;;;;5.20;4.20;;;37.50;80.70;;;;;;5072023;28;20178;-73
2023/07/08 10:29:09;;;;;;;5.50;4.45;;;37.70;83.20;;;;;;5073318;28;20190;-72
2023/07/08 10:31:53;;;;;;;4.38;3.95;;;37.90;80.90;;;;;;5073038;28;20654;-74
2023/07/08 10:34:28;;;;;;;6.07;4.38;;;38.10;84.50;;;;;;5072310;28;20174;-73
2023/07/08 10:37:03;;;;;;;6.57;4.72;;;38.20;79.40;;;;;;5072940;28;20604;-73
2023/07/08 10:39:51;;;;;;;6.60;4.35;;;38.20;76.20;;;;;;5073125;28;20549;-73
2023/07/08 10:42:53;;;;;;;4.40;3.90;;;37.90;76.80;;;;;;5059388;28;20292;-74
2023/07/08 10:45:36;;;;;;;11.63;4.97;;;37.90;81.00;;;;;;5053031;28;20748;-74
2023/07/08 10:48:34;;;;;;;5.22;4.30;;;37.60;77.30;;;;;;5052813;28;20266;-74
2023/07/08 10:51:10;;;;;;;5.28;4.53;;;37.60;81.50;;;;;;5052835;28;20167;-74
2023/07/08 10:53:52;;;;;;;6.75;4.57;;;37.90;81.60;;;;;;5052622;28;20175;-74
2023/07/08 10:56:28;;;;;;;9.52;4.80;;;38.20;80.60;;;;;;5052494;28;20584;-74
2023/07/08 10:59:09;;;;;;;5.40;4.38;;;38.60;76.80;;;;;;5052870;28;20292;-74
2023/07/08 11:01:41;;;;;;;4.90;4.38;;;38.90;85.70;;;;;;5052745;28;20180;-74
2023/07/08 11:04:44;;;;;;;9.02;4.78;;;38.50;79.00;;;;;;5034598;28;20585;-73
2023/07/08 11:07:23;;;;;;;5.70;4.70;;;38.50;74.70;;;;;;5052361;28;20193;-74
2023/07/08 11:09:54;;;;;;;5.65;5.15;;;38.60;78.20;;;;;;5052624;28;20217;-74
2023/07/08 11:12:38;;;;;;;5.50;4.28;;;38.50;75.10;;;;;;5067087;28;20208;-74
2023/07/08 11:15:22;;;;;;;7.20;4.40;;;38.70;76.30;;;;;;5051013;28;20265;-74
2023/07/08 11:18:03;;;;;;;8.35;4.25;;;39.00;75.80;;;;;;5071176;28;20181;-74
2023/07/08 11:20:53;;;;;;;6.03;4.80;;;39.20;75.20;;;;;;5068105;28;20179;-74
2023/07/08 11:23:41;;;;;;;9.25;4.30;;;39.20;74.50;;;;;;5068809;28;20251;-74
2023/07/08 11:26:23;;;;;;;4.43;3.90;;;39.20;73.80;;;;;;5071501;28;20182;-74
2023/07/08 11:28:52;;;;;;;5.68;4.10;;;39.40;71.20;;;;;;5070552;28;20202;-73
2023/07/08 11:31:18;;;;;;;3.90;3.58;;;39.30;76.80;;;;;;5071768;28;20265;-74
2023/07/08 11:33:46;;;;;;;4.70;3.58;;;39.40;73.30;;;;;;5071637;28;20205;-74
2023/07/08 11:36:12;;;;;;;6.90;4.57;;;39.40;71.80;;;;;;5071693;28;20168;-73
2023/07/08 11:38:48;;;;;;;4.93;3.78;;;39.60;73.80;;;;;;5071829;28;20185;-71
2023/07/08 11:41:18;;;;;;;5.07;4.45;;;39.80;68.30;;;;;;5070445;28;20208;-73
2023/07/08 11:43:52;;;;;;;8.13;3.90;;;39.90;72.70;;;;;;5071439;28;20198;-72
2023/07/08 11:46:25;;;;;;;6.15;4.78;;;39.80;73.70;;;;;;5071464;28;20254;-73
2023/07/08 11:48:53;;;;;;;7.35;4.13;;;39.70;71.70;;;;;;5071691;28;20202;-72
2023/07/08 11:51:31;;;;;;;5.47;4.65;;;39.70;72.90;;;;;;5071488;28;20170;-73
2023/07/08 11:54:10;;;;;;;6.63;4.65;;;39.70;68.50;;;;;;5070271;28;20193;-73
2023/07/08 11:56:57;;;;;;;5.03;4.20;;;39.50;66.00;;;;;;5071546;28;20178;-72
2023/07/08 11:59:25;;;;;;;5.60;4.35;;;39.10;67.30;;;;;;5071266;28;20190;-74
2023/07/08 12:02:01;;;;;;;5.57;3.92;;;39.10;65.00;;;;;;5071655;28;20531;-74
2023/07/08 12:04:33;;;;;;;5.57;4.00;;;39.30;64.60;;;;;;5071080;28;20629;-73
2023/07/08 12:07:10;;;;;;;4.95;3.83;;;39.30;66.30;;;;;;5070727;28;20175;-75
2023/07/08 12:09:49;;;;;;;4.90;4.35;;;39.60;68.20;;;;;;5071342;28;20244;-73
2023/07/08 12:12:29;;;;;;;4.65;3.92;;;39.70;65.60;;;;;;5071025;28;20664;-74
2023/07/08 12:15:01;;;;;;;5.75;4.00;;;39.60;65.40;;;;;;5071323;28;20182;-73
2023/07/08 12:17:28;;;;;;;10.95;5.65;;;39.60;65.20;;;;;;5071468;28;20231;-73
2023/07/08 12:19:57;;;;;;;8.15;4.22;;;39.60;62.50;;;;;;5070949;28;20201;-73
2023/07/08 12:22:23;;;;;;;6.45;4.68;;;39.50;63.10;;;;;;5070619;28;20181;-74
2023/07/08 12:24:48;;;;;;;5.05;4.22;;;39.40;63.80;;;;;;5071205;28;20174;-74
2023/07/08 12:27:14;;;;;;;7.35;4.30;;;39.30;62.90;;;;;;5070633;28;20178;-73
2023/07/08 12:29:40;;;;;;;6.50;4.03;;;39.30;61.10;;;;;;5071361;28;20645;-73
2023/07/08 12:32:09;;;;;;;5.75;4.82;;;39.40;63.70;;;;;;5070772;28;20202;-74
2023/07/08 12:34:34;;;;;;;6.75;4.20;;;39.50;63.00;;;;;;5070915;28;20235;-72
2023/07/08 12:37:00;;;;;;;6.78;4.60;;;39.50;61.80;;;;;;5071165;28;20166;-74
2023/07/08 12:39:26;;;;;;;6.05;4.50;;;39.50;64.50;;;;;;5070904;28;20182;-74
2023/07/08 12:41:52;;;;;;;7.25;4.15;;;39.70;67.60;;;;;;5070830;28;20261;-74
2023/07/08 12:44:23;;;;;;;6.82;4.35;;;40.00;63.30;;;;;;5070441;28;20250;-74
2023/07/08 12:46:52;;;;;;;6.65;4.45;;;40.10;64.80;;;;;;5071314;28;20177;-74
2023/07/08 12:49:19;;;;;;;7.38;4.43;;;39.90;59.60;;;;;;5070584;28;20190;-74
2023/07/08 12:51:45;;;;;;;7.18;4.40;;;40.00;61.90;;;;;;5071249;28;20240;-73
2023/07/08 12:54:12;;;;;;;6.43;4.28;;;39.60;60.90;;;;;;5070079;28;20514;-72
2023/07/08 12:56:40;;;;;;;9.02;4.63;;;39.60;65.10;;;;;;5071016;28;20543;-70